Time;durP1;ratioP1;P1;durP2;ratioP2;P2;SDS_P1;SDS_P2;PMS_P1;PMS_P2;Temp;Humidity;BMP_temperature;BMP_pressure;BME280_temperature;BME280_humidity;BME280_pressure;Samples;Min_cycle;Max_cycle;Signal;HPM_P1;HPM_P2
2022/01/27 00:04:16;;;;;;;34.43;23.73;;;3.70;99.90;;;;;;10541833;28;20563;-78
2022/01/27 00:09:24;;;;;;;36.33;24.80;;;3.70;99.90;;;;;;10543644;28;20220;-78
2022/01/27 00:14:26;;;;;;;36.10;24.57;;;3.60;99.90;;;;;;10519320;28;20212;-79
2022/01/27 00:19:30;;;;;;;36.40;23.90;;;3.60;99.90;;;;;;10542827;28;20242;-78
2022/01/27 00:24:32;;;;;;;41.27;26.27;;;3.70;99.90;;;;;;10545460;28;20196;-77
2022/01/27 00:29:34;;;;;;;40.97;24.97;;;3.70;99.90;;;;;;10544085;28;20289;-78
2022/01/27 00:34:38;;;;;;;41.77;26.27;;;3.70;99.90;;;;;;10542367;28;20223;-79
2022/01/27 00:40:04;;;;;;;42.57;25.57;;;3.70;99.90;;;;;;10543458;28;20228;-79
2022/01/27 00:45:12;;;;;;;40.33;26.20;;;3.70;99.90;;;;;;10541981;28;20656;-78
2022/01/27 00:50:31;;;;;;;41.00;25.70;;;3.70;99.90;;;;;;10541501;28;20223;-78
2022/01/27 00:55:40;;;;;;;42.23;25.40;;;3.60;99.90;;;;;;10520113;28;20203;-77
2022/01/27 01:00:52;;;;;;;43.63;27.50;;;3.60;99.90;;;;;;10541295;28;20626;-78
2022/01/27 01:06:14;;;;;;;45.77;26.70;;;3.60;99.90;;;;;;10535535;28;20567;-79
2022/01/27 01:12:09;;;;;;;43.23;27.03;;;3.70;99.90;;;;;;10538366;28;20215;-79
2022/01/27 01:17:40;;;;;;;44.77;27.27;;;3.70;99.90;;;;;;10545036;28;20199;-77
2022/01/27 01:33:27;;;;;;;47.20;28.97;;;3.70;99.90;;;;;;10545361;28;20219;-78
2022/01/27 01:38:30;;;;;;;47.27;30.50;;;3.60;99.90;;;;;;10527105;28;20231;-78
2022/01/27 01:43:32;;;;;;;42.80;27.60;;;3.60;99.90;;;;;;10542066;28;20256;-77
2022/01/27 01:48:35;;;;;;;40.90;27.00;;;3.60;99.90;;;;;;10548224;28;20898;-76
2022/01/27 01:53:41;;;;;;;39.50;25.67;;;3.70;99.90;;;;;;10534652;28;20278;-80
2022/01/27 01:58:51;;;;;;;39.43;24.80;;;3.70;99.90;;;;;;10537907;28;20215;-78
2022/01/27 02:03:53;;;;;;;38.00;24.77;;;3.70;99.90;;;;;;10535493;28;20229;-79
2022/01/27 02:09:13;;;;;;;37.57;24.87;;;3.80;99.90;;;;;;10540954;28;20216;-77
2022/01/27 02:19:36;;;;;;;36.33;24.80;;;3.70;99.90;;;;;;10539738;28;20216;-78
2022/01/27 02:24:40;;;;;;;42.27;26.40;;;3.70;99.90;;;;;;10516698;28;20200;-77
2022/01/27 02:29:45;;;;;;;38.17;25.80;;;3.60;99.90;;;;;;10539326;28;20224;-79
2022/01/27 02:34:47;;;;;;;37.60;25.60;;;3.50;99.90;;;;;;10536905;28;20729;-79
2022/01/27 02:39:53;;;;;;;36.97;25.70;;;3.50;99.90;;;;;;10523262;28;20709;-80
2022/01/27 02:45:14;;;;;;;35.77;23.67;;;3.60;99.90;;;;;;10536264;28;20196;-78
2022/01/27 02:50:19;;;;;;;35.17;23.53;;;3.70;99.90;;;;;;10536770;28;20228;-80
2022/01/27 02:55:23;;;;;;;34.07;23.80;;;3.60;99.90;;;;;;10539255;28;20290;-79
2022/01/27 03:00:25;;;;;;;35.43;25.07;;;3.60;99.90;;;;;;10544409;28;20624;-78
2022/01/27 03:05:27;;;;;;;35.57;24.33;;;3.60;99.90;;;;;;10543708;28;20283;-79
2022/01/27 03:10:35;;;;;;;32.13;22.63;;;3.70;99.90;;;;;;10545830;28;20634;-78
2022/01/27 03:15:39;;;;;;;32.53;22.40;;;3.70;99.90;;;;;;10533797;28;20280;-77
2022/01/27 03:20:41;;;;;;;31.33;22.23;;;3.70;99.90;;;;;;10546319;28;20224;-79
2022/01/27 03:25:47;;;;;;;29.67;21.90;;;3.70;99.90;;;;;;10545508;28;20211;-76
2022/01/27 03:30:49;;;;;;;27.00;21.17;;;3.80;99.90;;;;;;10544874;28;20231;-77
2022/01/27 03:35:51;;;;;;;32.10;22.67;;;3.80;99.90;;;;;;10545311;28;20260;-80
2022/01/27 03:40:55;;;;;;;32.03;21.90;;;3.80;99.90;;;;;;10546732;28;20214;-78
2022/01/27 03:46:00;;;;;;;22.50;17.53;;;3.80;99.90;;;;;;10527048;28;20234;-78
2022/01/27 03:51:06;;;;;;;31.00;22.70;;;3.80;99.90;;;;;;10544558;28;20251;-79
2022/01/27 03:56:09;;;;;;;28.40;22.80;;;3.80;99.90;;;;;;10546114;28;20213;-78
2022/01/27 04:01:11;;;;;;;28.70;22.20;;;3.80;99.90;;;;;;10536952;28;20291;-76
2022/01/27 04:06:20;;;;;;;30.03;22.23;;;3.90;99.90;;;;;;10521789;28;20199;-76
2022/01/27 04:11:23;;;;;;;27.60;21.17;;;3.90;99.90;;;;;;10540757;28;20221;-79
2022/01/27 04:16:26;;;;;;;29.43;21.90;;;3.90;99.90;;;;;;10543855;28;20679;-79
2022/01/27 04:21:28;;;;;;;28.37;22.87;;;3.90;99.90;;;;;;10545830;28;20302;-79
2022/01/27 04:26:38;;;;;;;29.63;22.80;;;3.90;99.90;;;;;;10526117;28;20237;-78
2022/01/27 04:31:43;;;;;;;29.67;22.43;;;3.90;99.90;;;;;;10525129;28;20374;-78
2022/01/27 04:36:45;;;;;;;29.80;24.13;;;3.90;99.90;;;;;;10544226;28;20201;-79
2022/01/27 04:41:54;;;;;;;28.90;22.03;;;3.90;99.90;;;;;;10525551;28;20216;-79
2022/01/27 04:47:01;;;;;;;27.90;21.80;;;3.80;99.90;;;;;;10542525;28;20196;-78
2022/01/27 04:52:05;;;;;;;31.03;22.50;;;3.80;99.90;;;;;;10522821;28;20250;-80
2022/01/27 04:57:08;;;;;;;32.50;23.07;;;3.90;99.90;;;;;;10543005;28;20282;-80
2022/01/27 05:02:17;;;;;;;30.10;23.10;;;3.80;99.90;;;;;;10543626;28;20729;-78
2022/01/27 05:07:20;;;;;;;32.30;23.13;;;3.90;99.90;;;;;;10522398;28;20204;-78
2022/01/27 05:12:32;;;;;;;29.50;22.53;;;3.90;99.90;;;;;;10531713;28;20574;-78
2022/01/27 05:17:34;;;;;;;31.23;23.30;;;3.90;99.90;;;;;;10533811;28;20648;-79
2022/01/27 05:22:36;;;;;;;30.23;23.50;;;3.90;99.90;;;;;;10523607;28;20203;-78
2022/01/27 05:27:40;;;;;;;29.13;22.80;;;3.90;99.90;;;;;;10546800;28;20197;-78
2022/01/27 05:32:42;;;;;;;29.37;23.77;;;3.90;99.90;;;;;;10541191;28;20219;-76
2022/01/27 05:37:44;;;;;;;32.67;24.93;;;3.90;99.90;;;;;;10538852;28;20213;-78
2022/01/27 05:42:47;;;;;;;32.77;26.60;;;3.90;99.90;;;;;;10538395;28;20191;-78
2022/01/27 05:47:49;;;;;;;34.87;27.93;;;3.90;99.90;;;;;;10532936;28;20223;-79
2022/01/27 05:52:52;;;;;;;35.93;28.83;;;3.90;99.90;;;;;;10522531;28;20306;-77
2022/01/27 05:57:55;;;;;;;37.37;29.60;;;3.90;99.90;;;;;;10534547;28;20212;-77
2022/01/27 06:02:57;;;;;;;37.13;29.40;;;3.90;99.90;;;;;;10534082;28;20640;-77
2022/01/27 06:07:59;;;;;;;33.00;26.80;;;3.90;99.90;;;;;;10530646;28;20664;-77
2022/01/27 06:13:04;;;;;;;36.90;28.53;;;3.90;99.90;;;;;;10528533;28;20687;-77
2022/01/27 06:18:06;;;;;;;37.13;29.10;;;3.90;99.90;;;;;;10529583;28;20215;-77
2022/01/27 06:23:08;;;;;;;33.20;26.20;;;3.90;99.90;;;;;;10540852;28;20196;-78
2022/01/27 06:28:11;;;;;;;30.67;24.93;;;3.90;99.90;;;;;;10542874;28;20303;-78
2022/01/27 06:33:13;;;;;;;31.17;26.43;;;3.90;99.90;;;;;;10546455;28;20215;-79
2022/01/27 06:38:17;;;;;;;35.03;27.73;;;3.80;99.90;;;;;;10550865;28;20224;-78
2022/01/27 06:43:20;;;;;;;32.67;27.63;;;3.80;99.90;;;;;;10529796;28;20195;-78
2022/01/27 06:48:22;;;;;;;32.77;25.70;;;3.80;99.90;;;;;;10553147;28;20565;-80
2022/01/27 06:53:25;;;;;;;29.70;23.40;;;3.90;99.90;;;;;;10549703;28;20212;-80
2022/01/27 06:58:28;;;;;;;32.57;25.20;;;3.90;99.90;;;;;;10547943;28;20255;-79
2022/01/27 07:03:30;;;;;;;29.97;22.30;;;3.90;99.90;;;;;;10549110;28;20200;-81
2022/01/27 07:08:32;;;;;;;29.33;23.47;;;3.80;99.90;;;;;;10548852;28;20222;-81
2022/01/27 07:13:40;;;;;;;28.10;21.50;;;3.80;99.90;;;;;;10536304;28;20670;-79
2022/01/27 07:18:42;;;;;;;31.03;23.53;;;3.70;99.90;;;;;;10552605;28;20219;-79
2022/01/27 07:23:44;;;;;;;27.13;22.00;;;3.70;99.90;;;;;;10550880;28;20279;-80
2022/01/27 07:28:48;;;;;;;28.40;20.30;;;3.70;99.90;;;;;;10549589;28;20228;-79
2022/01/27 07:33:52;;;;;;;28.13;22.00;;;3.70;99.90;;;;;;10529985;28;20224;-80
2022/01/27 07:38:54;;;;;;;29.50;22.27;;;3.60;99.90;;;;;;10551822;28;20283;-80
2022/01/27 07:43:57;;;;;;;31.00;22.73;;;3.70;99.90;;;;;;10544871;28;20203;-81
2022/01/27 07:48:59;;;;;;;32.17;22.90;;;3.70;99.90;;;;;;10529013;28;20445;-81
2022/01/27 07:54:01;;;;;;;30.23;22.27;;;3.70;99.90;;;;;;10546578;28;20219;-81
2022/01/27 07:59:05;;;;;;;31.43;23.60;;;3.70;99.90;;;;;;10545973;28;20291;-81
2022/01/27 08:04:07;;;;;;;30.50;23.30;;;3.70;99.90;;;;;;10540118;28;20212;-79
2022/01/27 08:09:09;;;;;;;32.73;23.50;;;3.70;99.90;;;;;;10519533;28;20300;-80
2022/01/27 08:14:13;;;;;;;36.87;24.90;;;3.60;99.70;;;;;;10543966;28;20244;-79
2022/01/27 08:19:15;;;;;;;33.33;22.60;;;3.60;99.90;;;;;;10548843;28;20243;-77
2022/01/27 08:24:18;;;;;;;31.40;22.77;;;3.60;99.90;;;;;;10531386;28;20211;-79
2022/01/27 08:29:27;;;;;;;37.10;24.30;;;3.60;99.90;;;;;;10539717;28;20231;-80
2022/01/27 08:34:33;;;;;;;40.77;25.47;;;3.70;99.90;;;;;;10543887;28;20242;-80
2022/01/27 08:39:36;;;;;;;34.20;23.53;;;3.70;99.90;;;;;;10543977;28;20676;-80
2022/01/27 08:44:40;;;;;;;39.30;25.53;;;3.70;99.90;;;;;;10546253;28;20195;-79
2022/01/27 08:49:46;;;;;;;39.10;25.67;;;3.70;99.90;;;;;;10536595;28;20602;-77
2022/01/27 08:54:49;;;;;;;37.30;25.10;;;3.70;99.70;;;;;;10546431;28;20216;-78
2022/01/27 08:59:53;;;;;;;37.87;24.70;;;3.70;99.90;;;;;;10530299;28;20231;-80
2022/01/27 09:04:55;;;;;;;35.40;23.17;;;3.70;99.90;;;;;;10546765;28;20530;-78
2022/01/27 09:09:58;;;;;;;38.27;25.40;;;3.70;99.90;;;;;;10546803;28;20227;-79
2022/01/27 09:15:03;;;;;;;32.80;23.00;;;3.70;99.90;;;;;;10512021;28;20718;-78
2022/01/27 09:20:08;;;;;;;34.47;21.90;;;3.70;99.90;;;;;;10543118;28;20243;-79
2022/01/27 09:25:16;;;;;;;30.20;22.30;;;3.80;99.90;;;;;;10527116;28;20199;-80
2022/01/27 09:30:20;;;;;;;28.20;18.73;;;3.90;98.70;;;;;;10543267;28;20219;-79
2022/01/27 09:35:22;;;;;;;22.40;16.37;;;3.80;98.30;;;;;;10543054;28;20227;-78
2022/01/27 09:40:28;;;;;;;19.17;13.57;;;3.80;98.10;;;;;;10538157;28;20774;-80
2022/01/27 09:45:37;;;;;;;19.83;12.53;;;3.80;98.80;;;;;;10528967;28;20215;-77
2022/01/27 09:51:00;;;;;;;19.70;13.63;;;3.80;98.90;;;;;;10540847;28;21602;-79
2022/01/27 09:56:02;;;;;;;18.93;13.63;;;3.80;99.10;;;;;;10535780;28;20207;-78
2022/01/27 10:01:06;;;;;;;17.30;12.93;;;3.90;99.60;;;;;;10535781;28;20224;-79
2022/01/27 10:06:13;;;;;;;18.07;12.93;;;3.90;99.20;;;;;;10535843;28;20199;-80
2022/01/27 10:11:18;;;;;;;18.27;13.77;;;3.90;98.90;;;;;;10546470;28;20219;-80
2022/01/27 10:16:35;;;;;;;19.70;14.10;;;3.90;99.20;;;;;;10550196;28;20224;-78
2022/01/27 10:21:38;;;;;;;18.90;14.27;;;4.00;99.20;;;;;;10547041;28;20249;-77
2022/01/27 10:26:43;;;;;;;20.00;13.57;;;4.00;99.20;;;;;;10549319;28;20212;-80
2022/01/27 10:31:47;;;;;;;20.50;14.03;;;4.10;99.60;;;;;;10516343;28;20285;-80
2022/01/27 10:36:56;;;;;;;16.93;13.60;;;4.10;99.30;;;;;;10549660;28;20207;-77
2022/01/27 10:42:06;;;;;;;14.40;10.67;;;4.20;99.20;;;;;;10527168;28;20310;-79
2022/01/27 10:47:15;;;;;;;15.63;12.60;;;4.20;99.40;;;;;;10551950;28;20195;-80
2022/01/27 10:52:20;;;;;;;15.43;12.70;;;4.30;99.10;;;;;;10548301;28;20212;-79
2022/01/27 10:57:24;;;;;;;15.03;12.70;;;4.40;99.70;;;;;;10541713;28;20234;-78
2022/01/27 11:02:28;;;;;;;17.27;12.50;;;4.40;99.90;;;;;;10550563;28;20215;-78
2022/01/27 11:07:30;;;;;;;14.43;10.90;;;4.50;99.90;;;;;;10541573;28;20208;-80
2022/01/27 11:12:32;;;;;;;12.87;9.93;;;4.60;99.90;;;;;;10537329;28;20215;-79
2022/01/27 11:17:38;;;;;;;15.67;10.50;;;4.60;99.80;;;;;;10544347;28;20211;-78
2022/01/27 11:22:59;;;;;;;12.67;10.23;;;4.70;99.90;;;;;;10546217;28;20204;-79
2022/01/27 11:28:04;;;;;;;13.13;10.93;;;4.80;99.90;;;;;;10541081;28;20215;-77
2022/01/27 11:33:13;;;;;;;12.37;10.40;;;4.80;99.90;;;;;;10545756;28;20208;-78
2022/01/27 11:38:28;;;;;;;12.57;10.80;;;4.80;99.70;;;;;;10539316;28;20262;-77
2022/01/27 11:43:33;;;;;;;13.23;11.37;;;4.80;99.90;;;;;;10544504;28;20199;-80
2022/01/27 11:48:37;;;;;;;15.97;11.87;;;4.80;99.90;;;;;;10544723;28;20285;-79
2022/01/27 11:53:42;;;;;;;12.00;9.30;;;4.90;99.90;;;;;;10543210;28;20222;-80
2022/01/27 11:58:47;;;;;;;15.77;12.00;;;4.90;99.90;;;;;;10528172;28;20254;-80
2022/01/27 12:04:16;;;;;;;22.30;13.10;;;5.00;99.90;;;;;;10539542;28;20255;-80
2022/01/27 12:09:31;;;;;;;16.90;14.40;;;5.10;99.90;;;;;;10550079;28;20238;-79
2022/01/27 12:15:06;;;;;;;16.80;13.00;;;5.20;99.90;;;;;;10550750;28;20208;-78
2022/01/27 12:20:11;;;;;;;16.23;13.13;;;5.30;99.30;;;;;;10495525;28;20228;-79
2022/01/27 12:25:16;;;;;;;14.93;12.77;;;5.30;99.30;;;;;;10539602;28;20196;-78
2022/01/27 12:30:19;;;;;;;16.97;11.97;;;5.40;99.50;;;;;;10545842;28;20833;-79
2022/01/27 12:35:21;;;;;;;16.20;13.07;;;5.50;99.30;;;;;;10543845;28;20224;-78
2022/01/27 12:40:28;;;;;;;16.20;13.07;;;5.50;99.30;;;;;;10538847;28;20237;-79
2022/01/27 12:45:32;;;;;;;16.60;12.93;;;5.60;99.10;;;;;;10540295;28;20290;-79
2022/01/27 12:50:37;;;;;;;13.93;12.03;;;5.60;99.60;;;;;;10540870;28;20224;-77
2022/01/27 12:55:44;;;;;;;18.63;13.07;;;5.80;99.30;;;;;;10539059;28;20219;-77
2022/01/27 13:00:47;;;;;;;21.27;14.20;;;5.80;99.20;;;;;;10542163;28;20212;-79
2022/01/27 13:05:53;;;;;;;16.73;13.00;;;5.90;99.10;;;;;;10543416;28;20202;-79
2022/01/27 13:11:00;;;;;;;16.33;13.43;;;6.00;98.40;;;;;;10543320;28;20885;-79
2022/01/27 13:16:05;;;;;;;19.27;13.30;;;5.90;98.20;;;;;;10541987;28;20212;-79
2022/01/27 13:21:18;;;;;;;19.53;14.00;;;5.90;98.50;;;;;;10541509;28;20215;-79
2022/01/27 13:26:22;;;;;;;17.70;13.90;;;5.90;98.40;;;;;;10537709;28;20267;-79
2022/01/27 13:31:27;;;;;;;23.57;15.50;;;5.90;98.40;;;;;;10541041;28;20607;-78
2022/01/27 13:36:35;;;;;;;19.47;14.20;;;5.90;97.90;;;;;;10540865;28;20227;-79
2022/01/27 13:41:41;;;;;;;19.87;14.50;;;5.80;98.00;;;;;;10539230;28;20227;-77
2022/01/27 13:46:45;;;;;;;21.70;14.27;;;5.80;98.50;;;;;;10539269;28;20216;-77
2022/01/27 13:51:52;;;;;;;17.50;14.53;;;5.80;99.10;;;;;;10529923;28;20713;-78
2022/01/27 13:57:06;;;;;;;15.80;12.33;;;5.90;99.10;;;;;;10532677;28;20299;-77
2022/01/27 14:02:17;;;;;;;17.00;13.83;;;6.00;98.50;;;;;;10531470;28;20242;-78
2022/01/27 14:07:30;;;;;;;17.80;13.90;;;6.00;98.90;;;;;;10539460;28;20547;-78
2022/01/27 14:12:49;;;;;;;14.83;12.23;;;6.10;99.20;;;;;;10537497;28;20218;-80
2022/01/27 14:17:58;;;;;;;16.80;12.60;;;6.20;99.10;;;;;;10533437;28;20208;-80
2022/01/27 14:23:15;;;;;;;14.60;11.43;;;6.40;99.90;;;;;;10513259;28;20224;-79
2022/01/27 14:28:19;;;;;;;17.63;12.00;;;6.50;99.40;;;;;;10538175;28;20253;-76
2022/01/27 14:33:21;;;;;;;14.53;11.23;;;6.60;99.90;;;;;;10536970;28;20211;-77
2022/01/27 14:38:23;;;;;;;13.07;10.40;;;6.60;99.50;;;;;;10536977;28;20220;-77
2022/01/27 14:43:29;;;;;;;13.67;10.50;;;6.60;99.20;;;;;;10537442;28;20191;-78
2022/01/27 14:48:34;;;;;;;12.60;10.10;;;6.60;99.80;;;;;;10538215;28;20307;-78
2022/01/27 14:53:36;;;;;;;14.63;11.63;;;6.60;99.70;;;;;;10542272;28;20212;-80
2022/01/27 14:58:40;;;;;;;13.00;10.10;;;6.60;99.50;;;;;;10547526;28;20220;-79
2022/01/27 15:03:42;;;;;;;13.00;10.93;;;6.60;99.80;;;;;;10529573;28;20668;-77
2022/01/27 15:08:45;;;;;;;13.60;10.40;;;6.60;99.90;;;;;;10527232;28;20228;-78
2022/01/27 15:13:58;;;;;;;14.43;11.20;;;6.50;99.90;;;;;;10548421;28;20210;-78
2022/01/27 15:19:08;;;;;;;11.80;10.10;;;6.60;99.80;;;;;;10545859;28;20220;-80
2022/01/27 15:24:10;;;;;;;11.43;9.93;;;6.50;99.90;;;;;;10548208;28;20234;-78
2022/01/27 15:29:14;;;;;;;12.77;10.50;;;6.50;99.90;;;;;;10521675;28;20223;-80
2022/01/27 15:34:16;;;;;;;12.87;10.50;;;6.50;99.90;;;;;;10531269;28;20310;-80
2022/01/27 15:39:18;;;;;;;13.83;11.20;;;6.50;99.90;;;;;;10547789;28;20303;-80
2022/01/27 15:44:22;;;;;;;14.00;11.70;;;6.50;99.90;;;;;;10569540;28;20192;-76
2022/01/27 15:49:24;;;;;;;14.17;11.70;;;6.40;99.90;;;;;;10528509;28;20231;-79
2022/01/27 15:54:26;;;;;;;16.33;12.83;;;6.10;99.90;;;;;;10543441;28;20216;-77
2022/01/27 15:59:30;;;;;;;16.93;13.77;;;5.80;99.90;;;;;;10540813;28;20223;-77
2022/01/27 16:04:32;;;;;;;17.33;14.40;;;5.70;99.90;;;;;;10542671;28;20656;-79
2022/01/27 16:09:34;;;;;;;20.87;15.67;;;5.60;99.90;;;;;;10522075;28;20224;-77
2022/01/27 16:14:38;;;;;;;19.63;15.50;;;5.40;99.90;;;;;;10532530;28;20685;-78
2022/01/27 16:19:43;;;;;;;19.40;14.93;;;5.30;99.90;;;;;;10545025;28;20222;-80
2022/01/27 16:24:46;;;;;;;17.27;15.23;;;5.20;99.90;;;;;;10545607;28;20198;-80
2022/01/27 16:29:51;;;;;;;16.03;14.37;;;5.20;99.90;;;;;;10525251;28;20223;-79
2022/01/27 16:34:53;;;;;;;18.40;16.23;;;5.20;99.90;;;;;;10544526;28;20280;-80
2022/01/27 16:39:55;;;;;;;23.03;18.63;;;5.20;99.90;;;;;;10544439;28;20228;-81
2022/01/27 16:44:58;;;;;;;22.67;18.10;;;5.20;99.90;;;;;;10539434;28;20222;-81
2022/01/27 16:50:00;;;;;;;22.53;18.17;;;5.20;99.90;;;;;;10544676;28;20249;-79
2022/01/27 16:55:04;;;;;;;19.70;16.80;;;5.20;99.90;;;;;;10544398;28;20212;-79
2022/01/27 17:00:10;;;;;;;19.70;15.40;;;5.30;99.90;;;;;;10536426;28;20212;-81
2022/01/27 17:05:12;;;;;;;18.93;16.53;;;5.30;99.90;;;;;;10523599;28;20252;-80
2022/01/27 17:10:15;;;;;;;21.13;15.87;;;5.40;99.90;;;;;;10531187;28;20219;-78
2022/01/27 17:15:18;;;;;;;21.20;15.53;;;5.30;99.90;;;;;;10523268;28;20666;-79
2022/01/27 17:20:20;;;;;;;18.70;14.80;;;5.30;99.90;;;;;;10541429;28;20774;-78
2022/01/27 17:25:24;;;;;;;17.37;15.00;;;5.40;99.90;;;;;;10517263;28;20196;-79
2022/01/27 17:30:28;;;;;;;16.10;13.67;;;5.50;99.90;;;;;;10540551;28;20231;-79
2022/01/27 17:35:30;;;;;;;16.60;14.80;;;5.50;99.90;;;;;;10542418;28;20226;-79
2022/01/27 17:40:33;;;;;;;17.00;14.70;;;5.60;99.90;;;;;;10543304;28;20310;-79
2022/01/27 17:45:36;;;;;;;17.73;13.80;;;5.60;99.90;;;;;;10509151;28;20204;-79
2022/01/27 17:50:39;;;;;;;14.40;12.20;;;5.60;99.90;;;;;;10540465;28;20310;-79
2022/01/27 17:55:41;;;;;;;14.87;13.23;;;5.70;99.90;;;;;;10540848;28;20215;-79
2022/01/27 18:00:44;;;;;;;14.47;12.90;;;5.60;99.90;;;;;;10541882;28;20227;-79
2022/01/27 18:05:46;;;;;;;16.03;13.57;;;5.60;99.90;;;;;;10526004;28;20196;-79
2022/01/27 18:10:49;;;;;;;16.90;14.07;;;5.60;99.90;;;;;;10545182;28;20230;-77
2022/01/27 18:15:54;;;;;;;17.40;14.90;;;5.50;99.90;;;;;;10543702;28;20220;-78
2022/01/27 18:20:56;;;;;;;18.97;14.23;;;5.50;99.90;;;;;;10530802;28;20224;-78
2022/01/27 18:25:58;;;;;;;20.60;16.73;;;5.50;99.90;;;;;;10542835;28;20203;-78
2022/01/27 18:31:02;;;;;;;20.00;16.40;;;5.60;99.90;;;;;;10553141;28;20228;-78
2022/01/27 18:36:04;;;;;;;30.70;24.70;;;5.60;99.90;;;;;;10553632;28;20223;-80
2022/01/27 18:41:06;;;;;;;27.93;20.67;;;5.60;99.90;;;;;;10555635;28;20703;-78
2022/01/27 18:46:10;;;;;;;23.37;19.30;;;5.60;99.90;;;;;;10561524;28;20226;-79
2022/01/27 18:51:14;;;;;;;23.33;18.20;;;5.50;99.90;;;;;;10550366;28;20224;-79
2022/01/27 18:56:16;;;;;;;17.80;13.90;;;5.40;99.90;;;;;;10551470;28;20243;-79
2022/01/27 19:01:20;;;;;;;19.70;16.97;;;5.50;99.90;;;;;;10536914;28;20228;-77
2022/01/27 19:06:22;;;;;;;17.93;15.67;;;5.50;99.90;;;;;;10548896;28;20192;-79
2022/01/27 19:11:24;;;;;;;20.80;18.60;;;5.40;99.90;;;;;;10543088;28;20216;-79
2022/01/27 19:16:28;;;;;;;21.73;16.60;;;5.40;99.90;;;;;;10544072;28;20208;-77
2022/01/27 19:21:30;;;;;;;18.53;16.73;;;5.40;99.90;;;;;;10544810;28;20440;-78
2022/01/27 19:26:35;;;;;;;16.77;14.80;;;5.50;99.90;;;;;;10545778;28;20196;-78
2022/01/27 19:31:38;;;;;;;17.93;16.03;;;5.40;99.90;;;;;;10539795;28;20224;-77
2022/01/27 19:36:41;;;;;;;17.87;15.60;;;5.50;99.90;;;;;;10544145;28;20329;-79
2022/01/27 19:41:44;;;;;;;17.93;15.33;;;5.50;99.90;;;;;;10541021;28;20224;-78
2022/01/27 19:46:48;;;;;;;15.00;13.40;;;5.50;99.90;;;;;;10528279;28;20199;-79
2022/01/27 19:51:52;;;;;;;18.43;15.80;;;5.40;99.90;;;;;;10544718;28;20708;-80
2022/01/27 19:56:54;;;;;;;15.63;13.47;;;5.50;99.90;;;;;;10545151;28;20638;-80
2022/01/27 20:01:57;;;;;;;15.93;14.43;;;5.50;99.90;;;;;;10546090;28;20220;-80
2022/01/27 20:07:01;;;;;;;17.57;15.20;;;5.60;99.90;;;;;;10530088;28;20200;-77
2022/01/27 20:12:06;;;;;;;12.43;11.13;;;5.60;99.90;;;;;;10548591;28;20640;-78
2022/01/27 20:17:09;;;;;;;16.37;11.63;;;5.60;99.90;;;;;;10547315;28;20283;-78
2022/01/27 20:22:11;;;;;;;11.00;9.90;;;5.70;99.90;;;;;;10544437;28;20235;-78
2022/01/27 20:27:13;;;;;;;11.47;10.50;;;5.80;99.90;;;;;;10539248;28;20224;-79
2022/01/27 20:32:17;;;;;;;10.17;9.37;;;5.90;99.90;;;;;;10523297;28;20239;-80
2022/01/27 20:37:19;;;;;;;6.10;5.57;;;5.90;99.90;;;;;;10539689;28;20219;-79
2022/01/27 20:42:21;;;;;;;8.17;7.30;;;5.90;99.90;;;;;;10539462;28;20262;-79
2022/01/27 20:47:25;;;;;;;7.40;6.70;;;6.00;99.90;;;;;;10539583;28;20199;-79
2022/01/27 20:52:27;;;;;;;6.90;6.47;;;6.00;99.90;;;;;;10519669;28;20241;-77
2022/01/27 20:57:30;;;;;;;6.77;6.30;;;6.00;99.90;;;;;;10538001;28;20211;-78
2022/01/27 21:02:34;;;;;;;6.50;6.10;;;6.10;99.90;;;;;;10541804;28;20722;-77
2022/01/27 21:07:36;;;;;;;5.93;5.60;;;6.10;99.90;;;;;;10535837;28;20226;-77
2022/01/27 21:12:38;;;;;;;6.90;6.50;;;6.10;99.90;;;;;;10535084;28;20203;-79
2022/01/27 21:17:42;;;;;;;6.20;5.80;;;6.10;99.90;;;;;;10523125;28;20225;-79
2022/01/27 21:22:44;;;;;;;6.90;6.40;;;6.10;99.90;;;;;;10540284;28;20686;-77
2022/01/27 21:27:46;;;;;;;7.73;7.20;;;6.20;99.90;;;;;;10540034;28;20200;-77
2022/01/27 21:32:50;;;;;;;7.00;6.50;;;6.20;99.90;;;;;;10541396;28;20679;-78
2022/01/27 21:37:52;;;;;;;6.53;6.07;;;6.30;99.90;;;;;;10538993;28;20254;-77
2022/01/27 21:42:54;;;;;;;5.80;5.40;;;6.30;99.90;;;;;;10520544;28;20203;-79
2022/01/27 21:47:58;;;;;;;5.00;4.63;;;6.30;99.90;;;;;;10541087;28;20543;-78
2022/01/27 21:53:00;;;;;;;6.17;5.53;;;6.40;99.90;;;;;;10541069;28;20302;-79
2022/01/27 21:58:02;;;;;;;6.73;6.13;;;6.40;99.90;;;;;;10541143;28;20688;-80
2022/01/27 22:03:06;;;;;;;6.10;5.60;;;6.40;99.90;;;;;;10542396;28;20199;-79
2022/01/27 22:08:08;;;;;;;4.83;4.53;;;6.40;99.90;;;;;;10525528;28;20215;-78
2022/01/27 22:13:11;;;;;;;5.30;5.00;;;6.40;99.90;;;;;;10543283;28;20195;-80
2022/01/27 22:18:18;;;;;;;5.43;5.03;;;6.50;99.90;;;;;;10539832;28;20224;-79
2022/01/27 22:23:20;;;;;;;6.07;5.67;;;6.50;99.90;;;;;;10544260;28;20287;-81
2022/01/27 22:28:23;;;;;;;5.47;5.03;;;6.50;99.90;;;;;;10542560;28;20224;-81
2022/01/27 22:33:26;;;;;;;6.40;6.00;;;6.50;99.90;;;;;;10523094;28;20253;-79
2022/01/27 22:38:28;;;;;;;7.20;6.60;;;6.50;99.90;;;;;;10524628;28;20224;-78
2022/01/27 22:43:32;;;;;;;6.87;6.37;;;6.50;99.90;;;;;;10541522;28;20202;-79
2022/01/27 22:48:36;;;;;;;6.90;6.40;;;6.50;99.90;;;;;;10543906;28;20224;-78
2022/01/27 22:53:38;;;;;;;7.77;7.17;;;6.40;99.90;;;;;;10544596;28;20204;-79
2022/01/27 22:58:40;;;;;;;8.50;7.80;;;6.40;99.90;;;;;;10543935;28;20228;-78
2022/01/27 23:03:43;;;;;;;9.10;8.23;;;6.40;99.90;;;;;;10538020;28;20196;-79
2022/01/27 23:08:46;;;;;;;8.60;7.90;;;6.30;99.90;;;;;;10529906;28;20220;-78
2022/01/27 23:13:49;;;;;;;9.50;8.60;;;6.20;99.90;;;;;;10509386;28;20283;-77
2022/01/27 23:19:07;;;;;;;9.07;8.27;;;6.10;99.90;;;;;;10542808;28;20223;-77
2022/01/27 23:24:12;;;;;;;9.20;8.40;;;6.00;99.90;;;;;;10542817;28;20191;-78
2022/01/27 23:29:18;;;;;;;9.87;9.07;;;6.00;99.90;;;;;;10543792;28;20303;-78
2022/01/27 23:34:21;;;;;;;10.27;9.40;;;5.90;99.90;;;;;;10542372;28;20212;-79
2022/01/27 23:39:39;;;;;;;11.77;10.57;;;5.90;99.90;;;;;;10526663;28;20238;-80
2022/01/27 23:44:53;;;;;;;10.90;10.00;;;6.00;99.90;;;;;;10546953;28;20198;-80
2022/01/27 23:50:01;;;;;;;11.40;10.23;;;6.00;99.90;;;;;;10549293;28;20227;-78
2022/01/27 23:55:07;;;;;;;10.27;9.27;;;6.00;99.90;;;;;;10552068;28;20739;-78
